createdAt,value
2023-05-22T00:02:14.792Z,12.35
2023-05-22T00:12:16.440Z,11.00
2023-05-22T00:22:17.987Z,12.17
2023-05-22T00:32:19.557Z,11.98
2023-05-22T00:42:22.549Z,12.30
2023-05-22T00:52:24.304Z,12.45
2023-05-22T01:02:25.968Z,11.50
2023-05-22T01:12:34.343Z,11.70
2023-05-22T01:22:52.359Z,11.30
2023-05-22T01:32:56.753Z,11.43
2023-05-22T01:42:58.642Z,12.00
2023-05-22T01:53:14.964Z,12.10
2023-05-22T02:03:21.105Z,11.33
2023-05-22T02:13:23.854Z,12.45
2023-05-22T02:23:26.636Z,12.70
2023-05-22T02:33:28.147Z,12.85
2023-05-22T02:43:29.650Z,12.90
2023-05-22T02:53:31.150Z,12.90
2023-05-22T03:03:33.382Z,12.20
2023-05-22T03:13:35.252Z,12.40
2023-05-22T03:23:36.832Z,12.20
2023-05-22T03:33:38.512Z,14.13
2023-05-22T03:43:41.563Z,14.13
2023-05-22T03:53:44.953Z,13.77
2023-05-22T04:03:46.500Z,14.10
2023-05-22T04:13:49.813Z,14.45
2023-05-22T04:23:51.362Z,13.73
2023-05-22T04:33:52.904Z,13.77
2023-05-22T04:43:54.658Z,14.13
2023-05-22T04:53:56.242Z,13.57
2023-05-22T05:03:57.788Z,13.30
2023-05-22T05:13:59.380Z,13.10
2023-05-22T05:24:01.017Z,13.13
2023-05-22T05:34:02.568Z,12.77
2023-05-22T05:44:04.316Z,12.70
2023-05-22T05:54:05.968Z,13.00
2023-05-22T06:04:07.756Z,12.67
2023-05-22T06:14:09.320Z,12.03
2023-05-22T06:24:10.851Z,11.50
2023-05-22T06:34:12.376Z,12.67
2023-05-22T06:44:13.947Z,12.75
2023-05-22T06:54:15.557Z,11.87
2023-05-22T07:04:17.184Z,12.33
2023-05-22T07:14:18.741Z,12.30
2023-05-22T07:24:20.422Z,11.80
2023-05-22T07:34:22.084Z,11.55
2023-05-22T07:44:23.617Z,11.20
2023-05-22T07:54:25.202Z,10.73
2023-05-22T08:04:26.871Z,11.60
2023-05-22T08:14:30.603Z,10.03
2023-05-22T08:24:32.181Z,11.23
2023-05-22T08:34:33.714Z,9.37
2023-05-22T08:44:35.491Z,10.03
2023-05-22T08:54:41.512Z,9.55
2023-05-22T09:04:43.314Z,8.90
2023-05-22T09:14:44.995Z,9.02
2023-05-22T09:24:46.499Z,8.87
2023-05-22T09:34:48.245Z,8.07
2023-05-22T09:44:50.078Z,7.85
2023-05-22T09:54:52.421Z,8.47
2023-05-22T10:04:54.301Z,10.70
2023-05-22T10:14:56.159Z,8.57
2023-05-22T10:24:58.837Z,10.03
2023-05-22T10:35:11.584Z,10.00
2023-05-22T10:45:13.611Z,9.90
2023-05-22T10:55:15.157Z,8.93
2023-05-22T11:05:19.773Z,9.53
2023-05-22T11:15:31.100Z,9.43
2023-05-22T11:25:34.480Z,8.32
2023-05-22T11:35:36.605Z,7.70
2023-05-22T11:45:39.827Z,8.52
2023-05-22T11:55:42.883Z,7.70
2023-05-22T12:05:45.712Z,7.40
2023-05-22T12:15:47.254Z,7.95
2023-05-22T12:25:59.466Z,8.40
2023-05-22T12:36:07.488Z,7.90
2023-05-22T12:46:34.388Z,7.57
2023-05-22T12:56:36.156Z,7.50
2023-05-22T13:06:37.679Z,7.70
2023-05-22T13:16:39.350Z,7.73
2023-05-22T13:26:40.981Z,7.88
2023-05-22T13:36:42.578Z,8.00
2023-05-22T13:46:44.290Z,7.30
2023-05-22T13:56:45.967Z,7.80
2023-05-22T14:06:47.544Z,7.73
2023-05-22T14:16:53.949Z,7.30
2023-05-22T14:26:55.657Z,7.03
2023-05-22T14:37:00.060Z,7.87
2023-05-22T14:47:02.877Z,7.55
2023-05-22T14:57:04.569Z,8.27
2023-05-22T15:07:06.173Z,7.72
2023-05-22T15:17:07.703Z,9.10
2023-05-22T15:27:12.170Z,7.40
2023-05-22T15:37:13.781Z,6.68
2023-05-22T15:47:19.280Z,7.40
2023-05-22T15:57:21.028Z,7.55
2023-05-22T16:07:22.689Z,6.43
2023-05-22T16:17:24.784Z,6.83
2023-05-22T16:27:26.796Z,6.32
2023-05-22T16:37:28.506Z,6.43
2023-05-22T16:47:30.295Z,7.82
2023-05-22T16:57:31.820Z,7.33
2023-05-22T17:07:33.391Z,6.27
2023-05-22T17:17:34.958Z,6.05
2023-05-22T17:27:37.064Z,6.90
2023-05-22T17:37:38.736Z,6.03
2023-05-22T17:47:40.285Z,7.00
2023-05-22T17:57:41.830Z,6.60
2023-05-22T18:07:43.827Z,7.75
2023-05-22T18:17:45.529Z,7.70
2023-05-22T18:27:47.681Z,7.40
2023-05-22T18:37:49.291Z,7.43
2023-05-22T18:47:50.859Z,7.97
2023-05-22T18:57:52.384Z,8.45
2023-05-22T19:07:53.925Z,8.47
2023-05-22T19:17:55.496Z,8.48
2023-05-22T19:27:57.052Z,8.23
2023-05-22T19:37:58.719Z,9.60
2023-05-22T19:48:00.370Z,9.50
2023-05-22T19:58:02.257Z,9.60
2023-05-22T20:08:03.806Z,9.65
2023-05-22T20:18:06.687Z,9.20
2023-05-22T20:28:08.251Z,10.50
2023-05-22T20:38:09.825Z,10.65
2023-05-22T20:48:14.580Z,10.80
2023-05-22T20:58:16.202Z,10.75
2023-05-22T21:08:17.756Z,10.20
2023-05-22T21:18:20.101Z,9.93
2023-05-22T21:28:21.875Z,9.75
2023-05-22T21:38:23.440Z,10.33
2023-05-22T21:48:24.983Z,9.85
2023-05-22T21:58:26.666Z,11.23
2023-05-22T22:08:28.367Z,10.17
2023-05-22T22:18:31.554Z,10.43
2023-05-22T22:28:33.733Z,10.67
2023-05-22T22:38:35.317Z,10.27
2023-05-22T22:48:36.920Z,9.90
2023-05-22T22:58:38.775Z,9.57
2023-05-22T23:08:40.269Z,9.73
2023-05-22T23:18:41.877Z,10.07
2023-05-22T23:28:43.597Z,10.38
2023-05-22T23:38:45.111Z,9.53
2023-05-22T23:48:46.849Z,8.83
2023-05-22T23:58:51.627Z,9.50
